createdAt,value
2024-03-15T00:00:44.332Z,100.00
2024-03-15T00:03:25.437Z,100.00
2024-03-15T00:06:13.268Z,100.00
2024-03-15T00:08:54.991Z,100.00
2024-03-15T00:11:42.362Z,100.00
2024-03-15T00:14:29.274Z,100.00
2024-03-15T00:17:12.915Z,100.00
2024-03-15T00:19:59.244Z,100.00
2024-03-15T00:22:46.506Z,100.00
2024-03-15T00:25:29.206Z,100.00
2024-03-15T00:28:16.227Z,100.00
2024-03-15T00:31:05.740Z,100.00
2024-03-15T00:33:46.318Z,100.00
2024-03-15T00:36:27.276Z,100.00
2024-03-15T00:39:14.232Z,100.00
2024-03-15T00:41:54.611Z,100.00
2024-03-15T00:44:41.216Z,100.00
2024-03-15T00:47:21.595Z,100.00
2024-03-15T00:50:08.185Z,100.00
2024-03-15T00:52:48.688Z,100.00
2024-03-15T00:55:38.212Z,100.00
2024-03-15T00:58:19.502Z,100.00
2024-03-15T01:01:06.326Z,100.00
2024-03-15T01:03:47.003Z,100.00
2024-03-15T01:06:34.191Z,100.00
2024-03-15T01:09:22.115Z,100.00
2024-03-15T01:12:02.114Z,100.00
2024-03-15T01:14:49.127Z,100.00
2024-03-15T01:17:36.306Z,100.00
2024-03-15T01:20:16.462Z,100.00
2024-03-15T01:23:04.152Z,100.00
2024-03-15T01:25:44.551Z,100.00
2024-03-15T01:28:31.216Z,100.00
2024-03-15T01:31:19.265Z,100.00
2024-03-15T01:33:59.108Z,100.00
2024-03-15T01:36:46.407Z,100.00
2024-03-15T01:39:26.425Z,100.00
2024-03-15T01:42:13.287Z,100.00
2024-03-15T01:45:08.252Z,100.00
2024-03-15T01:47:48.696Z,100.00
2024-03-15T01:50:36.112Z,100.00
2024-03-15T01:53:17.507Z,100.00
2024-03-15T01:56:04.112Z,100.00
2024-03-15T01:58:51.045Z,100.00
2024-03-15T02:01:31.242Z,100.00
2024-03-15T02:04:18.045Z,100.00
2024-03-15T02:07:05.492Z,100.00
2024-03-15T02:09:46.130Z,100.00
2024-03-15T02:12:26.978Z,100.00
2024-03-15T02:15:15.192Z,100.00
2024-03-15T02:18:02.111Z,100.00
2024-03-15T02:20:49.101Z,100.00
2024-03-15T02:23:36.108Z,100.00
2024-03-15T02:26:16.209Z,100.00
2024-03-15T02:29:04.754Z,100.00
2024-03-15T02:31:47.898Z,100.00
2024-03-15T02:34:35.076Z,100.00
2024-03-15T02:37:15.207Z,100.00
2024-03-15T02:40:02.018Z,100.00
2024-03-15T02:42:43.643Z,100.00
2024-03-15T02:45:30.013Z,100.00
2024-03-15T02:48:10.212Z,100.00
2024-03-15T02:50:56.970Z,100.00
2024-03-15T02:53:37.074Z,100.00
2024-03-15T02:56:24.007Z,100.00
2024-03-15T02:59:04.069Z,100.00
2024-03-15T03:01:54.064Z,100.00
2024-03-15T03:04:40.978Z,100.00
2024-03-15T03:07:21.344Z,100.00
2024-03-15T03:10:07.965Z,100.00
2024-03-15T03:12:55.032Z,100.00
2024-03-15T03:15:35.074Z,100.00
2024-03-15T03:18:22.000Z,100.00
2024-03-15T03:21:02.044Z,100.00
2024-03-15T03:23:55.909Z,100.00
2024-03-15T03:26:36.252Z,100.00
2024-03-15T03:29:23.030Z,100.00
2024-03-15T03:32:03.394Z,100.00
2024-03-15T03:34:49.962Z,100.00
2024-03-15T03:37:30.252Z,100.00
2024-03-15T03:40:21.961Z,100.00
2024-03-15T03:43:02.569Z,100.00
2024-03-15T03:45:50.943Z,100.00
2024-03-15T04:03:29.998Z,100.00
2024-03-15T04:06:10.949Z,100.00
2024-03-15T04:08:59.027Z,100.00
2024-03-15T04:11:39.944Z,100.00
2024-03-15T04:14:28.465Z,100.00
2024-03-15T04:17:15.032Z,100.00
2024-03-15T04:19:55.912Z,100.00
2024-03-15T04:22:43.841Z,100.00
2024-03-15T04:25:24.918Z,100.00
2024-03-15T04:28:11.939Z,100.00
2024-03-15T04:30:58.879Z,100.00
2024-03-15T04:33:45.868Z,100.00
2024-03-15T04:36:32.860Z,100.00
2024-03-15T04:39:14.061Z,100.00
2024-03-15T04:42:00.977Z,100.00
2024-03-15T04:44:49.065Z,100.00
2024-03-15T04:47:28.980Z,100.00
2024-03-15T04:50:11.569Z,100.00
2024-03-15T04:52:59.830Z,100.00
2024-03-15T04:55:47.124Z,100.00
2024-03-15T04:58:28.907Z,100.00
2024-03-15T05:01:22.832Z,100.00
2024-03-15T05:04:09.803Z,100.00
2024-03-15T05:06:56.879Z,100.00
2024-03-15T05:09:38.030Z,100.00
2024-03-15T05:12:24.852Z,100.00
2024-03-15T05:15:05.632Z,100.00
2024-03-15T05:17:52.965Z,100.00
2024-03-15T05:20:34.398Z,100.00
2024-03-15T05:23:20.841Z,100.00
2024-03-15T05:26:01.458Z,98.81
2024-03-15T05:28:47.808Z,97.42
2024-03-15T05:31:28.268Z,93.27
2024-03-15T05:34:15.777Z,91.71
2024-03-15T05:36:56.264Z,92.04
2024-03-15T05:39:42.829Z,88.57
2024-03-15T05:42:23.804Z,87.27
2024-03-15T05:45:11.788Z,84.42
2024-03-15T05:47:58.803Z,84.57
2024-03-15T05:50:45.782Z,87.74
2024-03-15T05:53:32.836Z,88.78
2024-03-15T05:56:12.831Z,90.29
2024-03-15T05:58:53.081Z,90.41
2024-03-15T06:01:39.760Z,88.57
2024-03-15T06:04:26.979Z,89.68
2024-03-15T06:07:07.821Z,85.62
2024-03-15T06:09:54.766Z,83.44
2024-03-15T06:12:41.816Z,84.00
2024-03-15T06:15:29.758Z,80.46
2024-03-15T06:18:16.791Z,74.84
2024-03-15T06:20:57.077Z,73.10
2024-03-15T06:23:43.713Z,80.68
2024-03-15T06:26:24.065Z,83.03
2024-03-15T06:29:10.707Z,82.30
2024-03-15T06:31:51.075Z,80.40
2024-03-15T06:34:39.637Z,73.82
2024-03-15T06:37:23.516Z,68.45
2024-03-15T06:40:11.731Z,68.67
2024-03-15T06:43:04.129Z,70.53
2024-03-15T06:46:00.776Z,67.47
2024-03-15T06:49:02.865Z,69.84
2024-03-15T06:52:01.625Z,69.25
2024-03-15T06:54:49.756Z,65.54
2024-03-15T06:57:29.815Z,67.38
2024-03-15T07:00:17.810Z,64.05
2024-03-15T07:03:11.730Z,60.93
2024-03-15T07:05:52.008Z,61.00
2024-03-15T07:08:38.659Z,56.98
2024-03-15T07:11:19.697Z,56.40
2024-03-15T07:14:06.636Z,56.57
2024-03-15T07:16:53.647Z,58.71
2024-03-15T07:19:40.812Z,60.06
2024-03-15T07:22:21.380Z,61.21
2024-03-15T07:25:12.939Z,59.99
2024-03-15T07:27:54.604Z,62.35
2024-03-15T07:30:43.649Z,66.90
2024-03-15T07:33:25.217Z,66.96
2024-03-15T07:36:15.716Z,70.97
2024-03-15T07:39:02.604Z,75.89
2024-03-15T07:41:50.670Z,78.55
2024-03-15T07:44:37.714Z,71.29
2024-03-15T07:47:17.598Z,67.65
2024-03-15T07:50:04.614Z,66.66
2024-03-15T07:52:44.743Z,60.83
2024-03-15T07:55:38.692Z,57.48
2024-03-15T07:58:19.232Z,52.96
2024-03-15T08:01:05.637Z,50.89
2024-03-15T08:03:54.205Z,48.13
2024-03-15T08:06:35.656Z,45.81
2024-03-15T08:09:16.898Z,44.75
2024-03-15T08:12:04.692Z,46.37
2024-03-15T08:14:45.006Z,45.78
2024-03-15T08:17:31.595Z,48.38
2024-03-15T08:20:12.247Z,49.14
2024-03-15T08:22:58.583Z,51.81
2024-03-15T08:25:40.548Z,49.45
2024-03-15T08:28:27.761Z,45.79
2024-03-15T08:31:08.858Z,45.36
2024-03-15T08:33:59.952Z,45.48
2024-03-15T08:36:40.906Z,43.86
2024-03-15T08:39:31.532Z,40.17
2024-03-15T08:42:13.069Z,35.00
2024-03-15T08:45:00.689Z,35.09
2024-03-15T08:47:51.032Z,39.50
2024-03-15T08:50:46.548Z,35.38
2024-03-15T08:53:27.274Z,38.44
2024-03-15T08:56:14.623Z,40.93
2024-03-15T08:59:06.330Z,46.66
2024-03-15T09:02:01.625Z,47.09
2024-03-15T09:04:41.998Z,51.30
2024-03-15T09:07:32.538Z,58.39
2024-03-15T09:10:19.652Z,62.85
2024-03-15T09:12:59.615Z,58.56
2024-03-15T09:15:40.004Z,53.30
2024-03-15T09:18:26.669Z,50.63
2024-03-15T09:21:09.127Z,47.13
2024-03-15T09:23:56.432Z,41.58
2024-03-15T09:26:44.542Z,39.02
2024-03-15T09:29:31.653Z,42.77
2024-03-15T09:32:18.974Z,46.16
2024-03-15T09:34:59.576Z,47.40
2024-03-15T09:37:56.428Z,46.44
2024-03-15T09:40:43.511Z,46.30
2024-03-15T09:43:23.936Z,49.79
2024-03-15T09:46:11.480Z,52.83
2024-03-15T09:48:53.335Z,56.08
2024-03-15T09:51:42.600Z,56.76
2024-03-15T09:54:22.945Z,61.62
2024-03-15T09:57:09.485Z,66.33
2024-03-15T10:00:03.459Z,70.15
2024-03-15T10:02:59.459Z,70.71
2024-03-15T10:05:39.867Z,79.96
2024-03-15T10:08:26.406Z,85.25
2024-03-15T10:11:06.832Z,88.53
2024-03-15T10:13:53.503Z,89.93
2024-03-15T10:16:45.471Z,92.02
2024-03-15T10:19:26.410Z,91.86
2024-03-15T10:22:15.458Z,91.55
2024-03-15T10:25:02.424Z,94.52
2024-03-15T10:28:01.704Z,94.72
2024-03-15T10:30:41.793Z,98.03
2024-03-15T10:33:28.596Z,99.09
2024-03-15T10:36:11.442Z,100.00
2024-03-15T10:39:00.385Z,100.00
2024-03-15T10:41:40.667Z,100.00
2024-03-15T10:44:29.337Z,100.00
2024-03-15T10:47:10.800Z,100.00
2024-03-15T10:49:57.398Z,100.00
2024-03-15T10:52:37.543Z,100.00
2024-03-15T10:55:29.540Z,100.00
2024-03-15T10:58:10.595Z,100.00
2024-03-15T11:00:57.591Z,100.00
2024-03-15T11:03:44.591Z,100.00
2024-03-15T11:06:24.344Z,100.00
2024-03-15T11:09:25.616Z,100.00
2024-03-15T11:12:17.509Z,100.00
2024-03-15T11:15:12.466Z,100.00
2024-03-15T11:17:53.376Z,100.00
2024-03-15T11:21:02.335Z,100.00
2024-03-15T11:23:42.439Z,100.00
2024-03-15T11:26:30.542Z,100.00
2024-03-15T11:29:11.328Z,100.00
2024-03-15T11:31:58.337Z,100.00
2024-03-15T11:34:46.448Z,100.00
2024-03-15T11:37:33.404Z,99.64
2024-03-15T11:40:14.306Z,99.28
2024-03-15T11:43:08.247Z,99.93
2024-03-15T11:45:53.448Z,100.00
2024-03-15T11:48:34.349Z,100.00
2024-03-15T11:51:21.337Z,100.00
2024-03-15T11:54:01.793Z,100.00
2024-03-15T11:56:48.276Z,100.00
2024-03-15T11:59:28.937Z,100.00
2024-03-15T12:02:16.320Z,100.00
2024-03-15T12:04:57.568Z,100.00
2024-03-15T12:07:44.295Z,100.00
2024-03-15T12:10:24.846Z,100.00
2024-03-15T12:13:11.291Z,100.00
2024-03-15T12:16:02.220Z,100.00
2024-03-15T12:18:43.338Z,100.00
2024-03-15T12:21:30.318Z,100.00
2024-03-15T12:24:17.327Z,100.00
2024-03-15T12:27:04.311Z,100.00
2024-03-15T12:29:44.309Z,100.00
2024-03-15T12:32:27.548Z,100.00
2024-03-15T12:35:14.217Z,100.00
2024-03-15T12:37:54.587Z,100.00
2024-03-15T12:40:42.310Z,100.00
2024-03-15T12:43:24.399Z,100.00
2024-03-15T12:46:11.277Z,100.00
2024-03-15T12:48:59.794Z,100.00
2024-03-15T12:51:40.211Z,100.00
2024-03-15T12:54:27.257Z,100.00
2024-03-15T12:57:09.660Z,100.00
2024-03-15T12:59:56.178Z,100.00
2024-03-15T13:02:36.321Z,100.00
2024-03-15T13:05:26.196Z,100.00
2024-03-15T13:08:06.791Z,100.00
2024-03-15T13:10:53.310Z,100.00
2024-03-15T13:13:33.316Z,100.00
2024-03-15T13:16:20.203Z,100.00
2024-03-15T13:19:00.359Z,100.00
2024-03-15T13:21:47.195Z,100.00
2024-03-15T13:24:34.193Z,100.00
2024-03-15T13:27:15.678Z,100.00
2024-03-15T13:30:02.120Z,100.00
2024-03-15T13:32:52.464Z,100.00
2024-03-15T13:35:33.258Z,100.00
2024-03-15T13:38:21.306Z,100.00
2024-03-15T13:41:01.203Z,100.00
2024-03-15T13:43:49.082Z,100.00
2024-03-15T13:46:36.160Z,100.00
2024-03-15T13:49:23.301Z,100.00
2024-03-15T13:52:03.173Z,100.00
2024-03-15T13:54:43.527Z,100.00
2024-03-15T13:57:30.154Z,99.76
2024-03-15T14:00:37.158Z,100.00
2024-03-15T14:03:24.241Z,99.41
2024-03-15T14:06:04.069Z,98.76
2024-03-15T14:08:51.145Z,100.00
2024-03-15T14:11:39.192Z,100.00
2024-03-15T14:14:19.471Z,100.00
2024-03-15T14:17:07.106Z,99.11
2024-03-15T14:19:47.888Z,98.46
2024-03-15T14:22:35.103Z,98.47
2024-03-15T14:25:18.216Z,99.52
2024-03-15T14:28:05.089Z,98.45
2024-03-15T14:30:55.007Z,100.00
2024-03-15T14:33:37.179Z,100.00
2024-03-15T14:36:24.118Z,98.70
2024-03-15T14:39:16.107Z,98.51
2024-03-15T14:42:03.493Z,99.34
2024-03-15T14:44:44.104Z,98.16
2024-03-15T14:47:31.260Z,100.00
2024-03-15T14:50:15.073Z,100.00
2024-03-15T14:52:56.135Z,100.00
2024-03-15T14:55:43.304Z,100.00
2024-03-15T14:58:30.074Z,100.00
2024-03-15T15:01:10.288Z,100.00
2024-03-15T15:03:57.129Z,100.00
2024-03-15T15:06:37.128Z,100.00
2024-03-15T15:09:26.056Z,100.00
2024-03-15T15:12:06.294Z,100.00
2024-03-15T15:14:57.981Z,100.00
2024-03-15T15:17:45.037Z,100.00
2024-03-15T15:20:32.150Z,100.00
2024-03-15T15:23:13.011Z,100.00
2024-03-15T15:26:00.049Z,100.00
2024-03-15T15:28:40.064Z,100.00
2024-03-15T15:31:27.106Z,100.00
2024-03-15T15:34:07.208Z,100.00
2024-03-15T15:36:54.148Z,100.00
2024-03-15T15:39:34.236Z,100.00
2024-03-15T15:42:21.953Z,100.00
2024-03-15T15:45:03.395Z,100.00
2024-03-15T15:47:49.971Z,100.00
2024-03-15T15:50:30.221Z,100.00
2024-03-15T16:05:34.396Z,100.00
2024-03-15T16:08:14.623Z,100.00
2024-03-15T16:11:01.308Z,100.00
2024-03-15T16:13:42.272Z,100.00
2024-03-15T16:16:29.137Z,100.00
2024-03-15T16:19:16.189Z,100.00
2024-03-15T16:21:56.238Z,100.00
2024-03-15T16:24:37.951Z,100.00
2024-03-15T16:27:25.245Z,100.00
2024-03-15T16:30:06.125Z,100.00
2024-03-15T16:32:55.953Z,100.00
2024-03-15T16:35:38.494Z,100.00
2024-03-15T16:38:25.338Z,100.00
2024-03-15T16:41:12.264Z,100.00
2024-03-15T16:43:52.082Z,100.00
2024-03-15T16:46:39.560Z,100.00
2024-03-15T16:49:19.068Z,100.00
2024-03-15T16:52:00.485Z,100.00
2024-03-15T16:54:47.193Z,100.00
2024-03-15T16:57:34.127Z,100.00
2024-03-15T17:00:29.171Z,100.00
2024-03-15T17:03:16.221Z,100.00
2024-03-15T17:05:56.141Z,100.00
2024-03-15T17:08:43.024Z,100.00
2024-03-15T17:11:23.328Z,100.00
2024-03-15T17:14:12.070Z,100.00
2024-03-15T17:16:52.123Z,100.00
2024-03-15T17:19:39.181Z,100.00
2024-03-15T17:22:26.060Z,100.00
2024-03-15T17:25:09.713Z,100.00
2024-03-15T17:27:57.088Z,100.00
2024-03-15T17:30:44.075Z,100.00
2024-03-15T17:33:31.145Z,100.00
2024-03-15T17:36:11.436Z,100.00
2024-03-15T17:38:58.117Z,100.00
2024-03-15T17:41:45.010Z,100.00
2024-03-15T17:44:31.958Z,100.00
2024-03-15T17:47:12.422Z,100.00
2024-03-15T17:50:01.011Z,100.00
2024-03-15T17:52:49.017Z,100.00
2024-03-15T17:55:29.095Z,100.00
2024-03-15T17:58:16.036Z,100.00
2024-03-15T18:00:59.307Z,100.00
2024-03-15T18:03:45.971Z,100.00
2024-03-15T18:06:26.131Z,100.00
2024-03-15T18:09:12.970Z,100.00
2024-03-15T18:11:53.710Z,100.00
2024-03-15T18:14:40.920Z,100.00
2024-03-15T18:17:21.429Z,100.00
2024-03-15T18:20:08.915Z,100.00
2024-03-15T18:22:49.077Z,100.00
2024-03-15T18:25:35.956Z,100.00
2024-03-15T18:28:16.229Z,100.00
2024-03-15T18:31:03.056Z,100.00
2024-03-15T18:33:43.418Z,100.00
2024-03-15T18:36:32.988Z,100.00
2024-03-15T18:39:13.043Z,100.00
2024-03-15T18:41:59.929Z,100.00
2024-03-15T18:44:41.025Z,100.00
2024-03-15T18:47:27.921Z,100.00
2024-03-15T18:50:14.963Z,100.00
2024-03-15T18:53:01.913Z,100.00
2024-03-15T18:55:48.862Z,100.00
2024-03-15T18:58:36.940Z,100.00
2024-03-15T19:01:17.275Z,100.00
2024-03-15T19:04:04.040Z,100.00
2024-03-15T19:06:44.047Z,100.00
2024-03-15T19:09:31.895Z,100.00
2024-03-15T19:12:18.957Z,100.00
2024-03-15T19:15:05.933Z,100.00
2024-03-15T19:17:53.984Z,100.00
2024-03-15T19:20:34.265Z,100.00
2024-03-15T19:23:20.873Z,100.00
2024-03-15T19:26:06.767Z,100.00
2024-03-15T19:28:53.835Z,100.00
2024-03-15T19:31:40.895Z,100.00
2024-03-15T19:34:21.016Z,100.00
2024-03-15T19:37:07.879Z,100.00
2024-03-15T19:39:55.011Z,100.00
2024-03-15T19:42:35.224Z,100.00
2024-03-15T19:45:23.932Z,100.00
2024-03-15T19:48:05.126Z,100.00
2024-03-15T19:50:51.873Z,100.00
2024-03-15T19:53:39.877Z,100.00
2024-03-15T19:56:26.806Z,100.00
2024-03-15T19:59:16.015Z,100.00
2024-03-15T20:01:56.039Z,100.00
2024-03-15T20:04:42.816Z,100.00
2024-03-15T20:07:23.491Z,100.00
2024-03-15T20:10:09.932Z,100.00
2024-03-15T20:12:49.982Z,100.00
2024-03-15T20:15:36.953Z,100.00
2024-03-15T20:18:16.962Z,100.00
2024-03-15T20:21:03.839Z,100.00
2024-03-15T20:23:44.258Z,100.00
2024-03-15T20:26:32.775Z,100.00
2024-03-15T20:29:13.181Z,100.00
2024-03-15T20:31:59.796Z,100.00
2024-03-15T20:34:46.747Z,100.00
2024-03-15T20:37:33.751Z,100.00
2024-03-15T20:40:26.775Z,100.00
2024-03-15T20:43:13.783Z,100.00
2024-03-15T20:46:03.794Z,100.00
2024-03-15T20:48:52.776Z,100.00
2024-03-15T20:51:39.782Z,100.00
2024-03-15T20:54:20.305Z,100.00
2024-03-15T20:57:06.875Z,100.00
2024-03-15T20:59:54.134Z,100.00
2024-03-15T21:02:33.740Z,100.00
2024-03-15T21:05:27.684Z,100.00
2024-03-15T21:08:15.788Z,100.00
2024-03-15T21:11:05.803Z,100.00
2024-03-15T21:13:49.835Z,100.00
2024-03-15T21:16:36.727Z,100.00
2024-03-15T21:19:23.682Z,100.00
2024-03-15T21:22:10.734Z,100.00
2024-03-15T21:24:51.112Z,100.00
2024-03-15T21:27:38.686Z,100.00
2024-03-15T21:30:29.521Z,100.00
2024-03-15T21:33:11.871Z,100.00
2024-03-15T21:35:58.664Z,100.00
2024-03-15T21:38:39.696Z,100.00
2024-03-15T21:41:26.722Z,100.00
2024-03-15T21:44:07.482Z,100.00
2024-03-15T21:46:55.676Z,100.00
2024-03-15T21:49:36.183Z,100.00
2024-03-15T21:52:22.630Z,98.25
2024-03-15T21:55:02.852Z,96.88
2024-03-15T21:57:49.676Z,98.87
2024-03-15T22:00:33.301Z,98.20
2024-03-15T22:03:21.639Z,98.22
2024-03-15T22:06:10.471Z,97.07
2024-03-15T22:08:50.607Z,96.56
2024-03-15T22:11:31.210Z,96.04
2024-03-15T22:14:17.694Z,96.72
2024-03-15T22:17:04.763Z,96.40
2024-03-15T22:19:44.654Z,94.12
2024-03-15T22:22:25.052Z,94.18
2024-03-15T22:25:24.101Z,94.17
2024-03-15T22:28:06.689Z,94.56
2024-03-15T22:30:57.657Z,95.00
2024-03-15T22:33:39.658Z,94.77
2024-03-15T22:36:26.566Z,95.05
2024-03-15T22:39:13.575Z,95.14
2024-03-15T22:42:00.606Z,94.17
2024-03-15T22:44:49.607Z,93.00
2024-03-15T22:47:38.595Z,94.97
2024-03-15T22:50:19.656Z,94.80
2024-03-15T22:53:07.593Z,93.83
2024-03-15T22:55:52.876Z,93.80
2024-03-15T22:58:40.606Z,94.21
2024-03-15T23:01:29.610Z,92.49
2024-03-15T23:04:16.617Z,92.81
2024-03-15T23:07:03.767Z,95.33
2024-03-15T23:09:44.505Z,95.73
2024-03-15T23:12:31.589Z,96.80
2024-03-15T23:15:14.408Z,99.80
2024-03-15T23:18:02.590Z,100.00
2024-03-15T23:20:49.993Z,100.00
2024-03-15T23:23:29.749Z,100.00
2024-03-15T23:26:16.538Z,100.00
2024-03-15T23:29:03.576Z,100.00
2024-03-15T23:31:44.645Z,100.00
2024-03-15T23:34:34.569Z,100.00
2024-03-15T23:37:16.220Z,100.00
2024-03-15T23:40:03.622Z,100.00
2024-03-15T23:42:44.035Z,100.00
2024-03-15T23:45:31.675Z,100.00
2024-03-15T23:48:32.567Z,100.00
2024-03-15T23:51:14.160Z,100.00
2024-03-15T23:54:00.466Z,100.00
2024-03-15T23:56:47.614Z,100.00
2024-03-15T23:59:27.932Z,100.00
